IT-0162 weather

Aviosuperficie Blue Silo
Visinale di Pasiano, Friuli-Venezia Giulia, Italy

Public forecast

Using degrees Celsius for public forecast. Weather courtesy of forecast.io.

METAR (pilot weather report)

Closest report is Aviano Air Base, 8.8 nm (16.3 km) N. Retrieved 2019/09/23 05:55 UTC (9 minutes ago):

LIPA 230555Z 02003KT 9999 FEW060 BKN080 13/12 Q1013 RMK BKN VIS MIN 9999 WIND THR05 /////KT WIND THR23 /////KT A2993 BLU

TAF (pilot weather forecast)

Forecast is more than 12 hours old.

Closest forecast is Aviano Air Base, 8.8 nm (16.3 km) N. Retrieved 2015/11/03 12:24 UTC (4 years ago):

TAF TAF LIPA 031100Z 0312/0324 VRB03KT CAVOK